createdAt,value
2019-04-22T00:02:40.039Z,11.73
2019-04-22T00:05:13.116Z,11.30
2019-04-22T00:08:05.166Z,10.83
2019-04-22T00:10:40.666Z,14.67
2019-04-22T00:13:06.729Z,11.73
2019-04-22T00:15:34.232Z,17.67
2019-04-22T00:18:16.174Z,13.70
2019-04-22T00:20:43.670Z,13.10
2019-04-22T00:23:16.993Z,12.60
2019-04-22T00:25:49.377Z,15.97
2019-04-22T00:28:15.777Z,10.70
2019-04-22T00:30:47.179Z,9.50
2019-04-22T00:33:20.469Z,20.50
2019-04-22T00:36:31.859Z,17.90
2019-04-22T00:39:08.626Z,12.57
2019-04-22T00:41:35.918Z,10.30
2019-04-22T00:44:15.700Z,11.17
2019-04-22T00:46:40.790Z,11.20
2019-04-22T00:49:52.904Z,14.23
2019-04-22T00:51:50.528Z,11.23
2019-04-22T00:54:12.315Z,9.43
2019-04-22T00:56:42.198Z,13.23
2019-04-22T00:59:14.449Z,11.55
2019-04-22T01:01:45.732Z,10.48
2019-04-22T01:04:31.200Z,11.40
2019-04-22T01:06:51.356Z,12.90
2019-04-22T01:09:18.899Z,9.53
2019-04-22T01:11:52.603Z,9.87
2019-04-22T01:14:24.942Z,11.80
2019-04-22T01:17:03.085Z,8.93
2019-04-22T01:19:45.155Z,9.25
2019-04-22T01:22:13.115Z,10.13
2019-04-22T01:24:38.900Z,10.17
2019-04-22T01:27:11.592Z,11.40
2019-04-22T01:29:42.379Z,10.67
2019-04-22T01:32:00.375Z,8.97
2019-04-22T01:34:46.080Z,13.37
2019-04-22T01:37:20.099Z,10.87
2019-04-22T01:39:59.026Z,9.30
2019-04-22T01:42:32.744Z,9.77
2019-04-22T01:45:02.718Z,9.10
2019-04-22T01:47:34.393Z,12.60
2019-04-22T01:49:59.822Z,14.87
2019-04-22T01:52:56.754Z,11.17
2019-04-22T01:57:35.025Z,18.62
2019-04-22T02:00:03.673Z,9.93
2019-04-22T02:02:43.879Z,10.60
2019-04-22T02:05:14.455Z,8.30
2019-04-22T02:07:43.661Z,7.65
2019-04-22T02:10:11.149Z,14.13
2019-04-22T02:12:47.064Z,7.40
2019-04-22T02:15:21.037Z,9.67
2019-04-22T02:17:45.690Z,11.50
2019-04-22T02:20:23.218Z,13.80
2019-04-22T02:23:45.468Z,8.63
2019-04-22T02:28:38.276Z,9.90
2019-04-22T02:36:18.592Z,7.67
2019-04-22T02:38:51.900Z,10.50
2019-04-22T02:46:23.305Z,10.77
2019-04-22T02:51:21.996Z,9.63
2019-04-22T02:56:27.518Z,9.97
2019-04-22T02:58:58.815Z,11.30
2019-04-22T03:01:22.960Z,10.70
2019-04-22T03:04:06.816Z,10.70
2019-04-22T03:13:55.738Z,10.25
2019-04-22T03:16:29.153Z,13.20
2019-04-22T03:19:02.884Z,11.03
2019-04-22T03:24:08.873Z,13.30
2019-04-22T03:26:44.789Z,10.73
2019-04-22T03:28:54.957Z,11.25
2019-04-22T03:42:06.342Z,13.20
2019-04-22T03:47:11.442Z,16.05
2019-04-22T03:54:39.185Z,13.93
2019-04-22T04:02:13.699Z,17.27
2019-04-22T04:04:39.419Z,12.80
2019-04-22T04:07:26.977Z,12.57
2019-04-22T04:09:49.994Z,16.70
2019-04-22T04:15:07.459Z,11.60
2019-04-22T04:22:30.305Z,13.30
2019-04-22T04:25:19.265Z,11.30
2019-04-22T04:30:05.642Z,12.67
2019-04-22T04:37:41.008Z,10.50
2019-04-22T04:47:43.761Z,10.70
2019-04-22T04:50:09.290Z,11.57
2019-04-22T04:55:14.414Z,11.13
2019-04-22T05:02:46.636Z,14.20
2019-04-22T05:05:12.106Z,14.73
2019-04-22T05:10:35.799Z,12.47
2019-04-22T05:20:26.057Z,16.90
2019-04-22T05:22:39.695Z,10.00
2019-04-22T05:25:15.149Z,15.10
2019-04-22T05:27:40.123Z,12.00
2019-04-22T05:32:55.734Z,19.30
2019-04-22T05:35:25.314Z,13.35
2019-04-22T05:37:50.016Z,12.60
2019-04-22T05:40:20.237Z,12.28
2019-04-22T05:42:47.544Z,13.30
2019-04-22T05:47:51.934Z,12.73
2019-04-22T05:50:19.087Z,12.35
2019-04-22T05:52:54.029Z,15.78
2019-04-22T05:55:22.424Z,11.57
2019-04-22T06:03:09.991Z,14.33
2019-04-22T06:05:31.955Z,11.73
2019-04-22T06:08:01.595Z,15.07
2019-04-22T06:10:39.312Z,13.03
2019-04-22T06:13:02.126Z,13.63
2019-04-22T06:15:34.493Z,14.20
2019-04-22T06:20:53.223Z,14.20
2019-04-22T06:23:19.043Z,14.10
2019-04-22T06:26:14.767Z,11.67
2019-04-22T06:28:29.068Z,17.63
2019-04-22T06:30:57.450Z,11.10
2019-04-22T06:33:31.995Z,13.57
2019-04-22T06:35:56.278Z,12.53
2019-04-22T06:41:13.761Z,15.28
2019-04-22T06:43:40.831Z,12.83
2019-04-22T06:46:14.713Z,11.67
2019-04-22T06:48:46.002Z,12.77
2019-04-22T06:51:17.058Z,12.30
2019-04-22T06:53:47.392Z,13.53
2019-04-22T06:56:27.825Z,13.03
2019-04-22T06:59:01.453Z,12.40
2019-04-22T07:04:03.172Z,11.47
2019-04-22T07:06:41.648Z,13.43
2019-04-22T07:11:40.847Z,10.20
2019-04-22T07:14:05.615Z,10.93
2019-04-22T07:19:13.599Z,15.17
2019-04-22T07:21:46.891Z,15.87
2019-04-22T07:24:27.796Z,11.70
2019-04-22T07:26:45.027Z,12.13
2019-04-22T07:29:17.287Z,10.47
2019-04-22T07:31:53.053Z,16.65
2019-04-22T07:34:19.753Z,10.97
2019-04-22T07:39:23.127Z,10.97
2019-04-22T07:41:51.399Z,12.33
2019-04-22T07:44:24.265Z,13.03
2019-04-22T07:46:56.640Z,11.20
2019-04-22T07:49:26.447Z,10.90
2019-04-22T07:51:58.360Z,9.77
2019-04-22T07:54:28.680Z,10.93
2019-04-22T07:57:07.276Z,10.83
2019-04-22T07:59:28.053Z,10.73
2019-04-22T08:01:55.868Z,11.47
2019-04-22T08:07:05.055Z,9.53
2019-04-22T08:09:37.349Z,9.67
2019-04-22T08:11:59.317Z,12.68
2019-04-22T08:14:39.070Z,8.57
2019-04-22T08:17:36.453Z,10.87
2019-04-22T08:19:44.673Z,8.80
2019-04-22T08:22:08.755Z,8.33
2019-04-22T08:24:41.816Z,5.53
2019-04-22T08:27:11.449Z,5.30
2019-04-22T08:29:53.940Z,7.73
2019-04-22T08:32:14.598Z,5.65
2019-04-22T08:34:42.739Z,4.77
2019-04-22T08:37:44.789Z,5.70
2019-04-22T08:42:43.562Z,6.10
2019-04-22T08:45:09.462Z,5.17
2019-04-22T08:47:36.066Z,7.50
2019-04-22T08:50:21.691Z,4.67
2019-04-22T08:52:41.980Z,5.27
2019-04-22T08:55:12.935Z,5.67
2019-04-22T08:58:04.833Z,5.07
2019-04-22T09:00:15.426Z,4.20
2019-04-22T09:02:51.866Z,5.20
2019-04-22T09:05:31.050Z,4.90
2019-04-22T09:08:09.323Z,5.25
2019-04-22T09:10:24.466Z,5.40
2019-04-22T09:15:27.853Z,5.53
2019-04-22T09:18:00.212Z,5.03
2019-04-22T09:20:28.155Z,4.93
2019-04-22T09:23:02.735Z,4.80
2019-04-22T09:25:29.884Z,12.20
2019-04-22T09:27:56.012Z,12.37
2019-04-22T09:30:34.343Z,6.03
2019-04-22T09:33:08.218Z,5.43
2019-04-22T09:35:37.502Z,5.83
2019-04-22T09:38:33.153Z,4.50
2019-04-22T09:40:39.094Z,4.90
2019-04-22T09:43:17.140Z,5.15
2019-04-22T09:45:43.651Z,6.73
2019-04-22T09:48:16.600Z,5.17
2019-04-22T09:50:48.018Z,5.87
2019-04-22T09:53:25.338Z,6.10
2019-04-22T09:55:53.180Z,5.80
2019-04-22T09:58:33.607Z,8.63
2019-04-22T10:01:24.360Z,5.03
2019-04-22T10:09:02.075Z,8.17
2019-04-22T10:11:26.857Z,4.60
2019-04-22T10:14:01.112Z,4.65
2019-04-22T10:18:59.104Z,4.90
2019-04-22T10:21:40.023Z,5.00
2019-04-22T10:24:09.034Z,8.17
2019-04-22T10:26:43.941Z,5.70
2019-04-22T10:29:13.470Z,4.33
2019-04-22T10:31:46.578Z,8.77
2019-04-22T10:34:05.878Z,8.87
2019-04-22T10:36:21.787Z,5.10
2019-04-22T10:38:52.432Z,7.65
2019-04-22T10:41:40.701Z,7.23
2019-04-22T10:44:17.202Z,4.23
2019-04-22T10:47:02.177Z,7.53
2019-04-22T10:49:40.384Z,8.97
2019-04-22T10:53:13.272Z,6.53
2019-04-22T10:55:52.331Z,7.07
2019-04-22T10:58:40.620Z,5.23
2019-04-22T11:01:40.408Z,7.70
2019-04-22T11:04:11.105Z,13.63
2019-04-22T11:06:57.929Z,4.80
2019-04-22T11:09:25.308Z,4.30
2019-04-22T11:12:04.438Z,3.90
2019-04-22T11:20:19.858Z,4.10
2019-04-22T11:23:42.580Z,4.45
2019-04-22T11:25:52.410Z,3.87
2019-04-22T11:36:19.936Z,3.93
2019-04-22T11:46:11.427Z,4.20
2019-04-22T11:49:16.096Z,3.73
2019-04-22T12:27:24.409Z,3.03
2019-04-22T12:58:07.666Z,2.20
2019-04-22T13:20:42.152Z,2.63
2019-04-22T13:21:06.622Z,2.60
2019-04-22T13:47:17.444Z,2.67
2019-04-22T13:52:46.355Z,3.63
2019-04-22T13:55:05.610Z,2.17
2019-04-22T13:57:34.317Z,3.00
2019-04-22T13:59:46.977Z,2.08
2019-04-22T14:02:26.679Z,2.60
2019-04-22T14:04:56.897Z,2.57
2019-04-22T14:07:28.542Z,3.60
2019-04-22T14:09:58.285Z,2.27
2019-04-22T14:12:30.821Z,2.60
2019-04-22T14:15:06.198Z,2.40
2019-04-22T14:17:36.831Z,3.80
2019-04-22T14:20:15.016Z,2.20
2019-04-22T14:22:40.827Z,2.13
2019-04-22T14:25:10.574Z,2.70
2019-04-22T14:27:49.973Z,2.40
2019-04-22T14:30:12.593Z,2.57
2019-04-22T14:32:42.498Z,2.90
2019-04-22T14:35:18.972Z,2.13
2019-04-22T14:37:50.248Z,2.60
2019-04-22T14:40:22.967Z,2.20
2019-04-22T14:43:17.605Z,4.22
2019-04-22T14:45:58.059Z,2.22
2019-04-22T14:48:28.182Z,3.90
2019-04-22T14:51:06.325Z,2.90
2019-04-22T15:05:18.492Z,2.10
2019-04-22T15:08:26.898Z,2.33
2019-04-22T15:10:58.252Z,2.17
2019-04-22T15:13:33.554Z,2.60
2019-04-22T15:16:27.754Z,2.13
2019-04-22T15:19:17.887Z,2.33
2019-04-22T15:21:47.959Z,2.27
2019-04-22T15:24:24.886Z,3.10
2019-04-22T15:27:02.321Z,2.80
2019-04-22T15:29:33.635Z,2.57
2019-04-22T15:32:05.193Z,4.40
2019-04-22T15:34:36.543Z,3.03
2019-04-22T15:39:58.576Z,2.98
2019-04-22T15:42:35.596Z,3.03
2019-04-22T15:45:08.623Z,3.43
2019-04-22T15:47:39.929Z,3.20
2019-04-22T15:50:14.087Z,4.42
2019-04-22T15:52:49.610Z,3.10
2019-04-22T15:55:22.820Z,2.50
2019-04-22T15:57:55.658Z,3.10
2019-04-22T16:01:15.109Z,3.57
2019-04-22T16:04:08.266Z,4.67
2019-04-22T16:06:41.161Z,2.60
2019-04-22T16:09:15.027Z,3.00
2019-04-22T16:11:45.805Z,2.53
2019-04-22T16:14:36.625Z,4.55
2019-04-22T16:17:08.933Z,2.57
2019-04-22T16:20:03.695Z,2.80
2019-04-22T16:22:55.290Z,2.97
2019-04-22T16:26:09.569Z,3.33
2019-04-22T16:28:59.569Z,1.77
2019-04-22T16:32:15.516Z,2.37
2019-04-22T16:37:52.828Z,1.93
2019-04-22T16:40:23.313Z,1.60
2019-04-22T16:42:58.627Z,3.03
2019-04-22T16:45:25.371Z,3.00
2019-04-22T16:47:57.966Z,1.67
2019-04-22T16:50:30.867Z,1.80
2019-04-22T16:53:01.960Z,1.80
2019-04-22T16:55:50.799Z,2.67
2019-04-22T16:59:00.921Z,2.43
2019-04-22T17:04:20.874Z,2.80
2019-04-22T17:06:55.424Z,5.15
2019-04-22T17:09:27.882Z,2.62
2019-04-22T17:15:29.295Z,1.90
2019-04-22T17:18:05.571Z,2.40
2019-04-22T17:20:38.746Z,1.83
2019-04-22T17:23:17.799Z,5.20
2019-04-22T17:25:48.316Z,2.12
2019-04-22T17:28:19.336Z,3.17
2019-04-22T17:30:49.773Z,6.03
2019-04-22T17:33:20.950Z,3.10
2019-04-22T17:35:50.475Z,2.93
2019-04-22T17:38:44.272Z,6.53
2019-04-22T17:41:59.244Z,4.30
2019-04-22T17:44:48.689Z,3.85
2019-04-22T17:47:35.858Z,4.20
2019-04-22T17:50:23.080Z,4.40
2019-04-22T17:53:15.185Z,6.37
2019-04-22T17:56:02.071Z,4.28
2019-04-22T17:58:45.068Z,8.60
2019-04-22T18:01:29.495Z,3.52
2019-04-22T18:03:45.766Z,5.57
2019-04-22T18:06:52.287Z,4.20
2019-04-22T18:09:53.380Z,3.83
2019-04-22T18:12:22.195Z,4.53
2019-04-22T18:14:49.728Z,5.90
2019-04-22T18:18:21.574Z,6.63
2019-04-22T18:25:07.703Z,4.53
2019-04-22T18:34:32.582Z,10.05
2019-04-22T18:37:20.950Z,5.70
2019-04-22T18:51:51.359Z,3.57
2019-04-22T18:57:23.976Z,5.37
2019-04-22T18:59:42.908Z,3.87
2019-04-22T19:02:13.990Z,5.60
2019-04-22T19:05:01.063Z,3.70
2019-04-22T19:07:49.823Z,5.93
2019-04-22T19:10:18.335Z,3.73
2019-04-22T19:13:15.632Z,4.63
2019-04-22T19:15:35.159Z,7.93
2019-04-22T19:18:29.928Z,8.70
2019-04-22T19:21:20.942Z,5.67
2019-04-22T19:24:00.315Z,4.43
2019-04-22T19:26:58.827Z,8.00
2019-04-22T19:29:46.783Z,7.07
2019-04-22T19:32:18.473Z,19.87
2019-04-22T19:35:14.045Z,22.83
2019-04-22T19:37:47.820Z,19.07
2019-04-22T19:46:34.563Z,18.15
2019-04-22T19:49:19.811Z,15.07
2019-04-22T19:51:53.684Z,14.17
2019-04-22T19:54:33.821Z,14.50
2019-04-22T19:56:57.439Z,8.20
2019-04-22T19:59:42.612Z,13.50
2019-04-22T20:02:43.961Z,4.93
2019-04-22T20:05:26.461Z,6.37
2019-04-22T20:08:05.940Z,5.03
2019-04-22T20:22:03.399Z,5.40
2019-04-22T20:25:12.359Z,3.53
2019-04-22T20:28:32.312Z,4.47
2019-04-22T20:31:30.185Z,4.23
2019-04-22T20:39:06.449Z,3.63
2019-04-22T20:41:36.422Z,3.70
2019-04-22T20:44:15.997Z,5.30
2019-04-22T20:46:44.905Z,5.90
2019-04-22T20:49:31.051Z,4.40
2019-04-22T20:52:06.324Z,3.97
2019-04-22T20:54:33.332Z,4.03
2019-04-22T20:56:55.142Z,4.40
2019-04-22T20:59:30.087Z,4.23
2019-04-22T21:02:04.518Z,4.60
2019-04-22T21:04:33.293Z,3.33
2019-04-22T21:07:07.678Z,3.20
2019-04-22T21:09:38.162Z,3.42
2019-04-22T21:12:09.065Z,10.35
2019-04-22T21:14:46.052Z,2.90
2019-04-22T21:17:17.297Z,5.30
2019-04-22T21:19:54.705Z,5.10
2019-04-22T21:22:22.658Z,5.00
2019-04-22T21:24:48.801Z,3.10
2019-04-22T21:27:35.475Z,3.23
2019-04-22T21:29:52.180Z,5.13
2019-04-22T21:33:08.311Z,3.13
2019-04-22T21:36:35.336Z,3.77
2019-04-22T21:39:03.669Z,3.25
2019-04-22T21:41:37.539Z,4.30
2019-04-22T21:44:12.758Z,10.20
2019-04-22T21:46:44.251Z,3.77
2019-04-22T21:49:12.575Z,6.13
2019-04-22T21:55:24.163Z,2.53
2019-04-22T21:58:06.884Z,2.90
2019-04-22T22:00:54.172Z,3.55
2019-04-22T22:03:20.640Z,3.23
2019-04-22T22:06:04.875Z,9.05
2019-04-22T22:08:45.973Z,3.02
2019-04-22T22:11:13.373Z,3.70
2019-04-22T22:13:48.715Z,5.57
2019-04-22T22:16:42.953Z,3.20
2019-04-22T22:19:22.416Z,2.90
2019-04-22T22:22:03.837Z,3.23
2019-04-22T22:24:34.194Z,3.00
2019-04-22T22:27:10.730Z,6.20
2019-04-22T22:29:50.756Z,4.60
2019-04-22T22:32:16.823Z,6.08
2019-04-22T22:34:46.140Z,3.33
2019-04-22T22:37:13.307Z,6.90
2019-04-22T22:39:47.487Z,9.85
2019-04-22T22:42:31.296Z,3.87
2019-04-22T22:45:07.913Z,3.70
2019-04-22T22:47:53.986Z,3.03
2019-04-22T22:50:20.373Z,4.70
2019-04-22T22:53:06.688Z,3.35
2019-04-22T22:55:37.418Z,3.37
2019-04-22T22:58:14.281Z,5.73
2019-04-22T23:00:40.748Z,5.93
2019-04-22T23:05:49.231Z,3.10
2019-04-22T23:08:20.095Z,3.87
2019-04-22T23:10:55.518Z,4.80
2019-04-22T23:13:21.542Z,2.83
2019-04-22T23:15:43.007Z,3.20
2019-04-22T23:17:58.179Z,8.10
2019-04-22T23:20:35.406Z,3.33
2019-04-22T23:23:21.971Z,5.40
2019-04-22T23:25:54.789Z,3.30
2019-04-22T23:28:29.698Z,3.20
2019-04-22T23:31:23.658Z,3.63
2019-04-22T23:34:10.673Z,3.23
2019-04-22T23:37:07.266Z,3.90
2019-04-22T23:39:49.934Z,3.60
2019-04-22T23:42:20.879Z,3.70
2019-04-22T23:44:50.110Z,6.33
2019-04-22T23:47:33.714Z,3.97
2019-04-22T23:50:09.621Z,4.10
2019-04-22T23:52:53.123Z,4.40
2019-04-22T23:55:26.191Z,3.55
2019-04-22T23:58:29.053Z,4.20
